Time,TemperatureF,DewpointF,PressureIn,WindDirection,WindDirectionDegrees,WindSpeedMPH,WindSpeedGustMPH,Humidity,HourlyPrecipIn,Conditions,Clouds,dailyrainin,SoftwareType,DateUTC
2013-07-28 00:05:00,57.0,25.0,29.79,NW,311,1.0,6.0,29,0.00,,,0.00,weatherlink.com 1.10,2013-07-28 07:05:00,
2013-07-28 00:20:00,56.9,25.0,29.79,NNE,12,0.0,6.0,29,0.00,,,0.00,weatherlink.com 1.10,2013-07-28 07:20:00,
2013-07-28 00:35:00,56.5,25.0,29.79,North,349,1.0,4.0,30,0.00,,,0.00,weatherlink.com 1.10,2013-07-28 07:35:00,
2013-07-28 00:50:00,56.4,26.0,29.79,WNW,302,0.0,6.0,31,0.00,,,0.00,weatherlink.com 1.10,2013-07-28 07:50:00,
2013-07-28 01:05:00,55.1,26.0,29.79,NW,314,1.0,1.0,33,0.00,,,0.00,weatherlink.com 1.10,2013-07-28 08:05:00,
2013-07-28 01:20:00,54.9,27.0,29.79,NW,321,0.0,4.0,34,0.00,,,0.00,weatherlink.com 1.10,2013-07-28 08:20:00,
2013-07-28 01:35:00,54.2,27.0,29.80,SE,134,0.0,3.0,35,0.00,,,0.00,weatherlink.com 1.10,2013-07-28 08:35:00,
2013-07-28 01:50:00,55.2,27.0,29.80,East,82,0.0,1.0,34,0.00,,,0.00,weatherlink.com 1.10,2013-07-28 08:50:00,
2013-07-28 02:05:00,55.0,27.0,29.79,SE,125,1.0,3.0,34,0.00,,,0.00,weatherlink.com 1.10,2013-07-28 09:05:00,
2013-07-28 02:20:00,54.9,27.0,29.79,ESE,114,1.0,3.0,34,0.00,,,0.00,weatherlink.com 1.10,2013-07-28 09:20:00,
2013-07-28 02:35:00,54.8,27.0,29.79,ESE,114,1.0,2.0,34,0.00,,,0.00,weatherlink.com 1.10,2013-07-28 09:35:00,
2013-07-28 02:50:00,55.3,28.0,29.79,ESE,111,1.0,1.0,35,0.00,,,0.00,weatherlink.com 1.10,2013-07-28 09:50:00,
2013-07-28 03:05:00,54.7,29.0,29.79,ESE,122,1.0,2.0,38,0.00,,,0.00,weatherlink.com 1.10,2013-07-28 10:05:00,
2013-07-28 03:20:00,55.0,31.0,29.79,ESE,122,0.0,0.0,40,0.00,,,0.00,weatherlink.com 1.10,2013-07-28 10:20:00,
2013-07-28 03:35:00,54.8,32.0,29.79,ESE,121,0.0,0.0,42,0.00,,,0.00,weatherlink.com 1.10,2013-07-28 10:35:00,
2013-07-28 03:50:00,54.9,33.0,29.79,ESE,122,0.0,0.0,43,0.00,,,0.00,weatherlink.com 1.10,2013-07-28 10:50:00,
2013-07-28 04:05:00,54.1,32.0,29.79,SE,125,0.0,0.0,44,0.00,,,0.00,weatherlink.com 1.10,2013-07-28 11:05:00,
2013-07-28 04:20:00,55.2,32.0,29.79,ESE,111,0.0,0.0,42,0.00,,,0.00,weatherlink.com 1.10,2013-07-28 11:20:00,
2013-07-28 04:35:00,55.4,31.0,29.79,ESE,120,0.0,1.0,40,0.00,,,0.00,weatherlink.com 1.10,2013-07-28 11:35:00,
2013-07-28 04:50:00,55.0,31.0,29.79,ESE,115,0.0,1.0,40,0.00,,,0.00,weatherlink.com 1.10,2013-07-28 11:50:00,
2013-07-28 05:05:00,55.6,31.0,29.79,ESE,116,0.0,1.0,39,0.00,,,0.00,weatherlink.com 1.10,2013-07-28 12:05:00,
2013-07-28 05:20:00,54.7,31.0,29.79,East,96,0.0,1.0,40,0.00,,,0.00,weatherlink.com 1.10,2013-07-28 12:20:00,
2013-07-28 05:35:00,54.1,30.0,29.79,East,91,0.0,2.0,40,0.00,,,0.00,weatherlink.com 1.10,2013-07-28 12:35:00,
2013-07-28 05:50:00,55.0,30.0,29.79,ESE,110,0.0,1.0,38,0.00,,,0.00,weatherlink.com 1.10,2013-07-28 12:50:00,
2013-07-28 06:05:00,54.0,29.0,29.79,SE,131,0.0,1.0,39,0.00,,,0.00,weatherlink.com 1.10,2013-07-28 13:05:00,
2013-07-28 06:20:00,54.5,26.0,29.79,ESE,111,0.0,2.0,34,0.00,,,0.00,weatherlink.com 1.10,2013-07-28 13:20:00,
2013-07-28 06:35:00,55.4,27.0,29.79,ESE,111,0.0,0.0,34,0.00,,,0.00,weatherlink.com 1.10,2013-07-28 13:35:00,
2013-07-28 06:50:00,54.9,28.0,29.80,SE,131,0.0,2.0,35,0.00,,,0.00,weatherlink.com 1.10,2013-07-28 13:50:00,
2013-07-28 07:05:00,55.3,26.0,29.79,SE,131,0.0,0.0,33,0.00,,,0.00,weatherlink.com 1.10,2013-07-28 14:05:00,
2013-07-28 07:20:00,55.2,28.0,29.80,SE,132,0.0,0.0,35,0.00,,,0.00,weatherlink.com 1.10,2013-07-28 14:20:00,
2013-07-28 07:35:00,57.2,30.0,29.80,ESE,107,0.0,2.0,36,0.00,,,0.00,weatherlink.com 1.10,2013-07-28 14:35:00,
2013-07-28 07:50:00,60.2,31.0,29.80,SSE,148,0.0,1.0,33,0.00,,,0.00,weatherlink.com 1.10,2013-07-28 14:50:00,
2013-07-28 08:05:00,61.5,30.0,29.80,SE,140,0.0,2.0,30,0.00,,,0.00,weatherlink.com 1.10,2013-07-28 15:05:00,
2013-07-28 08:21:00,62.1,24.0,29.80,WNW,296,1.0,2.0,23,0.00,,,0.00,weatherlink.com 1.10,2013-07-28 15:21:00,
2013-07-28 08:36:00,61.9,24.0,29.80,WNW,287,0.0,3.0,23,0.00,,,0.00,weatherlink.com 1.10,2013-07-28 15:36:00,
2013-07-28 08:51:00,62.4,22.0,29.80,NW,311,1.0,4.0,21,0.00,,,0.00,weatherlink.com 1.10,2013-07-28 15:51:00,
2013-07-28 09:06:00,62.8,21.0,29.80,NNW,330,1.0,5.0,20,0.00,,,0.00,weatherlink.com 1.10,2013-07-28 16:06:00,
2013-07-28 09:21:00,63.4,23.0,29.80,NNW,332,4.0,8.0,21,0.00,,,0.00,weatherlink.com 1.10,2013-07-28 16:21:00,
2013-07-28 09:36:00,63.4,23.0,29.79,NW,306,2.0,6.0,21,0.00,,,0.00,weatherlink.com 1.10,2013-07-28 16:36:00,
2013-07-28 09:51:00,64.2,24.0,29.79,West,271,5.0,8.0,22,0.00,,,0.00,weatherlink.com 1.10,2013-07-28 16:51:00,
2013-07-28 10:06:00,64.9,24.0,29.79,WNW,294,5.0,12.0,21,0.00,,,0.00,weatherlink.com 1.10,2013-07-28 17:06:00,
2013-07-28 10:21:00,65.6,23.0,29.79,NW,312,2.0,7.0,20,0.00,,,0.00,weatherlink.com 1.10,2013-07-28 17:21:00,
2013-07-28 10:36:00,66.5,23.0,29.79,WNW,288,5.0,7.0,19,0.00,,,0.00,weatherlink.com 1.10,2013-07-28 17:36:00,
2013-07-28 10:51:00,67.3,22.0,29.79,NW,310,2.0,8.0,18,0.00,,,0.00,weatherlink.com 1.10,2013-07-28 17:51:00,
2013-07-28 11:06:00,67.9,23.0,29.79,WNW,294,5.0,6.0,18,0.00,,,0.00,weatherlink.com 1.10,2013-07-28 18:06:00,
2013-07-28 11:21:00,68.1,23.0,29.79,WNW,286,3.0,10.0,18,0.00,,,0.00,weatherlink.com 1.10,2013-07-28 18:21:00,
2013-07-28 11:36:00,69.4,25.0,29.78,NW,326,4.0,7.0,19,0.00,,,0.00,weatherlink.com 1.10,2013-07-28 18:36:00,
2013-07-28 11:51:00,69.9,24.0,29.78,NW,309,2.0,7.0,18,0.00,,,0.00,weatherlink.com 1.10,2013-07-28 18:51:00,
2013-07-28 12:06:00,70.1,26.0,29.78,WNW,297,0.0,9.0,19,0.00,,,0.00,weatherlink.com 1.10,2013-07-28 19:06:00,
2013-07-28 12:21:00,71.4,27.0,29.78,NW,324,3.0,8.0,19,0.00,,,0.00,weatherlink.com 1.10,2013-07-28 19:21:00,
2013-07-28 12:51:00,72.1,29.0,29.77,North,4,5.0,10.0,20,0.00,,,0.00,weatherlink.com 1.10,2013-07-28 19:51:00,
2013-07-28 13:06:00,72.3,28.0,29.77,NW,314,4.0,9.0,19,0.00,,,0.00,weatherlink.com 1.10,2013-07-28 20:06:00,
2013-07-28 13:21:00,73.5,29.0,29.77,North,357,4.0,11.0,19,0.00,,,0.00,weatherlink.com 1.10,2013-07-28 20:21:00,
2013-07-28 13:36:00,74.3,31.0,29.77,WNW,284,0.0,11.0,20,0.00,,,0.00,weatherlink.com 1.10,2013-07-28 20:36:00,
2013-07-28 13:51:00,74.7,30.0,29.76,WNW,297,6.0,10.0,19,0.00,,,0.00,weatherlink.com 1.10,2013-07-28 20:51:00,
2013-07-28 14:06:00,75.4,32.0,29.76,NW,312,7.0,12.0,20,0.00,,,0.00,weatherlink.com 1.10,2013-07-28 21:06:00,
2013-07-28 14:21:00,75.8,32.0,29.76,NW,325,6.0,11.0,20,0.00,,,0.00,weatherlink.com 1.10,2013-07-28 21:21:00,
2013-07-28 14:36:00,75.3,30.0,29.76,NNW,333,0.0,10.0,19,0.00,,,0.00,weatherlink.com 1.10,2013-07-28 21:36:00,
2013-07-28 14:51:00,76.1,31.0,29.75,West,266,4.0,16.0,19,0.00,,,0.00,weatherlink.com 1.10,2013-07-28 21:51:00,
2013-07-28 15:06:00,77.3,32.0,29.75,WNW,295,7.0,10.0,19,0.00,,,0.00,weatherlink.com 1.10,2013-07-28 22:06:00,
2013-07-28 15:21:00,76.5,31.0,29.75,West,260,7.0,13.0,19,0.00,,,0.00,weatherlink.com 1.10,2013-07-28 22:21:00,
2013-07-28 15:37:00,76.9,33.0,29.75,NW,310,8.0,13.0,20,0.00,,,0.00,weatherlink.com 1.10,2013-07-28 22:37:00,
2013-07-28 15:52:00,77.2,32.0,29.74,West,278,6.0,9.0,19,0.00,,,0.00,weatherlink.com 1.10,2013-07-28 22:52:00,
2013-07-28 16:07:00,77.5,32.0,29.74,WNW,297,3.0,11.0,19,0.00,,,0.00,weatherlink.com 1.10,2013-07-28 23:07:00,
2013-07-28 16:22:00,77.5,32.0,29.74,West,281,7.0,14.0,19,0.00,,,0.00,weatherlink.com 1.10,2013-07-28 23:22:00,
2013-07-28 16:37:00,77.2,33.0,29.74,WNW,295,4.0,13.0,20,0.00,,,0.00,weatherlink.com 1.10,2013-07-28 23:37:00,
2013-07-28 16:52:00,77.6,31.0,29.73,NW,316,7.0,11.0,18,0.00,,,0.00,weatherlink.com 1.10,2013-07-28 23:52:00,
2013-07-28 17:07:00,77.5,31.0,29.73,NW,309,4.0,10.0,18,0.00,,,0.00,weatherlink.com 1.10,2013-07-29 00:07:00,
2013-07-28 17:22:00,76.8,33.0,29.73,NW,325,5.0,13.0,20,0.00,,,0.00,weatherlink.com 1.10,2013-07-29 00:22:00,
2013-07-28 17:37:00,76.4,32.0,29.73,West,281,6.0,12.0,20,0.00,,,0.00,weatherlink.com 1.10,2013-07-29 00:37:00,
2013-07-28 17:52:00,75.8,32.0,29.73,NE,40,6.0,11.0,20,0.00,,,0.00,weatherlink.com 1.10,2013-07-29 00:52:00,
2013-07-28 18:07:00,75.6,32.0,29.73,WNW,288,4.0,10.0,20,0.00,,,0.00,weatherlink.com 1.10,2013-07-29 01:07:00,
2013-07-28 18:22:00,74.9,32.0,29.73,West,279,5.0,12.0,21,0.00,,,0.00,weatherlink.com 1.10,2013-07-29 01:22:00,
2013-07-28 18:37:00,74.2,33.0,29.73,WNW,292,7.0,11.0,22,0.00,,,0.00,weatherlink.com 1.10,2013-07-29 01:37:00,
2013-07-28 19:07:00,73.6,34.0,29.74,NNW,330,5.0,11.0,23,0.00,,,0.00,weatherlink.com 1.10,2013-07-29 02:07:00,
2013-07-28 19:37:00,70.9,34.0,29.74,NW,318,6.0,10.0,26,0.00,,,0.00,weatherlink.com 1.10,2013-07-29 02:37:00,
2013-07-28 19:52:00,69.9,34.0,29.74,North,351,7.0,11.0,27,0.00,,,0.00,weatherlink.com 1.10,2013-07-29 02:52:00,
2013-07-28 20:07:00,69.0,34.0,29.74,North,357,4.0,11.0,28,0.00,,,0.00,weatherlink.com 1.10,2013-07-29 03:07:00,
2013-07-28 20:52:00,63.3,35.0,29.75,North,353,1.0,6.0,35,0.00,,,0.00,weatherlink.com 1.10,2013-07-29 03:52:00,
2013-07-28 21:07:00,62.4,34.0,29.76,North,3,3.0,8.0,34,0.00,,,0.00,weatherlink.com 1.10,2013-07-29 04:07:00,
2013-07-28 21:22:00,61.3,33.0,29.77,NE,49,2.0,7.0,34,0.00,,,0.00,weatherlink.com 1.10,2013-07-29 04:22:00,
2013-07-28 21:37:00,60.6,32.0,29.77,NNE,12,3.0,8.0,34,0.00,,,0.00,weatherlink.com 1.10,2013-07-29 04:37:00,
2013-07-28 21:52:00,60.4,32.0,29.77,NNW,338,3.0,7.0,35,0.00,,,0.00,weatherlink.com 1.10,2013-07-29 04:52:00,
2013-07-28 22:07:00,60.0,33.0,29.77,NNW,332,2.0,9.0,36,0.00,,,0.00,weatherlink.com 1.10,2013-07-29 05:07:00,
2013-07-28 22:22:00,59.5,33.0,29.77,North,6,2.0,6.0,37,0.00,,,0.00,weatherlink.com 1.10,2013-07-29 05:22:00,
2013-07-28 22:37:00,58.8,33.0,29.77,NE,53,2.0,3.0,38,0.00,,,0.00,weatherlink.com 1.10,2013-07-29 05:37:00,
2013-07-28 22:52:00,58.4,33.0,29.77,North,353,0.0,3.0,38,0.00,,,0.00,weatherlink.com 1.10,2013-07-29 05:52:00,
2013-07-28 23:07:00,57.8,34.0,29.77,NNE,20,3.0,5.0,41,0.00,,,0.00,weatherlink.com 1.10,2013-07-29 06:07:00,
2013-07-28 23:22:00,57.6,34.0,29.77,North,360,0.0,4.0,41,0.00,,,0.00,weatherlink.com 1.10,2013-07-29 06:22:00,
2013-07-28 23:37:00,56.9,34.0,29.77,NNE,18,0.0,2.0,42,0.00,,,0.00,weatherlink.com 1.10,2013-07-29 06:37:00,
2013-07-28 23:52:00,56.7,34.0,29.77,NE,47,0.0,4.0,43,0.00,,,0.00,weatherlink.com 1.10,2013-07-29 06:52:00,